createdAt,value
2023-04-20T00:00:58.807Z,10.77
2023-04-20T00:03:26.523Z,15.50
2023-04-20T00:05:54.275Z,11.00
2023-04-20T00:08:20.921Z,12.43
2023-04-20T00:10:47.468Z,10.80
2023-04-20T00:13:14.020Z,10.50
2023-04-20T00:15:40.748Z,11.73
2023-04-20T00:18:07.370Z,10.77
2023-04-20T00:20:35.000Z,11.37
2023-04-20T00:23:02.020Z,12.33
2023-04-20T00:25:30.300Z,15.07
2023-04-20T00:27:57.485Z,12.00
2023-04-20T00:30:24.228Z,11.60
2023-04-20T00:32:51.063Z,11.43
2023-04-20T00:35:17.687Z,9.70
2023-04-20T00:37:44.240Z,11.40
2023-04-20T00:40:11.049Z,11.63
2023-04-20T00:42:40.430Z,15.10
2023-04-20T00:45:07.464Z,9.43
2023-04-20T00:47:34.160Z,10.33
2023-04-20T00:50:00.727Z,9.73
2023-04-20T00:52:27.661Z,10.57
2023-04-20T00:54:54.785Z,12.80
2023-04-20T00:57:25.216Z,10.60
2023-04-20T00:59:51.754Z,10.63
2023-04-20T01:02:18.776Z,12.47
2023-04-20T01:04:47.262Z,12.10
2023-04-20T01:07:13.797Z,14.60
2023-04-20T01:09:40.472Z,11.03
2023-04-20T01:12:07.561Z,10.63
2023-04-20T01:14:34.120Z,9.40
2023-04-20T01:17:00.632Z,10.83
2023-04-20T01:19:27.154Z,11.87
2023-04-20T01:21:53.669Z,9.90
2023-04-20T01:24:20.348Z,13.10
2023-04-20T01:26:46.914Z,11.87
2023-04-20T01:29:13.514Z,10.17
2023-04-20T01:31:40.173Z,9.43
2023-04-20T01:34:06.758Z,10.37
2023-04-20T01:36:33.567Z,9.00
2023-04-20T01:39:01.477Z,9.50
2023-04-20T01:41:28.001Z,9.63
2023-04-20T01:43:54.626Z,10.07
2023-04-20T01:46:21.165Z,14.87
2023-04-20T01:48:47.709Z,9.97
2023-04-20T01:51:14.212Z,9.30
2023-04-20T01:53:40.915Z,11.03
2023-04-20T01:56:07.572Z,9.30
2023-04-20T01:58:34.134Z,14.20
2023-04-20T02:01:03.766Z,10.27
2023-04-20T02:03:30.762Z,9.43
2023-04-20T02:05:57.473Z,14.93
2023-04-20T02:08:24.034Z,9.07
2023-04-20T02:10:50.582Z,9.30
2023-04-20T02:13:17.148Z,10.33
2023-04-20T02:15:43.721Z,9.93
2023-04-20T02:18:10.563Z,8.47
2023-04-20T02:20:37.271Z,12.53
2023-04-20T02:23:03.883Z,10.77
2023-04-20T02:25:30.423Z,9.17
2023-04-20T02:27:56.995Z,9.37
2023-04-20T02:30:23.536Z,9.20
2023-04-20T02:32:50.148Z,9.27
2023-04-20T02:35:17.001Z,11.30
2023-04-20T02:37:44.258Z,9.67
2023-04-20T02:40:11.604Z,10.70
2023-04-20T02:42:38.134Z,9.10
2023-04-20T02:45:05.221Z,12.33
2023-04-20T02:47:31.972Z,10.57
2023-04-20T02:49:58.552Z,8.30
2023-04-20T02:52:25.285Z,8.70
2023-04-20T02:54:51.809Z,8.83
2023-04-20T02:57:18.428Z,8.77
2023-04-20T02:59:44.958Z,9.30
2023-04-20T03:02:11.760Z,8.80
2023-04-20T03:04:39.196Z,11.87
2023-04-20T03:07:06.294Z,9.90
2023-04-20T03:09:32.828Z,9.37
2023-04-20T03:11:59.387Z,8.83
2023-04-20T03:14:26.048Z,9.90
2023-04-20T03:16:53.081Z,8.43
2023-04-20T03:19:19.784Z,8.77
2023-04-20T03:21:46.589Z,8.93
2023-04-20T03:24:13.227Z,11.40
2023-04-20T03:26:39.754Z,8.27
2023-04-20T03:29:06.268Z,7.77
2023-04-20T03:31:32.909Z,10.43
2023-04-20T03:33:59.535Z,13.10
2023-04-20T03:36:28.091Z,9.60
2023-04-20T03:38:54.642Z,8.70
2023-04-20T03:41:22.036Z,10.27
2023-04-20T03:43:48.673Z,10.37
2023-04-20T03:46:15.312Z,9.03
2023-04-20T03:48:41.878Z,8.70
2023-04-20T03:51:08.436Z,9.60
2023-04-20T03:53:36.631Z,8.10
2023-04-20T03:56:05.143Z,8.93
2023-04-20T03:58:31.682Z,8.60
2023-04-20T04:01:02.994Z,14.40
2023-04-20T04:03:30.160Z,8.03
2023-04-20T04:05:56.861Z,11.27
2023-04-20T04:08:23.413Z,8.40
2023-04-20T04:10:50.401Z,8.23
2023-04-20T04:13:17.081Z,8.93
2023-04-20T04:15:43.863Z,7.93
2023-04-20T04:18:10.822Z,9.70
2023-04-20T04:20:37.356Z,9.63
2023-04-20T04:23:05.351Z,9.80
2023-04-20T04:25:31.993Z,10.17
2023-04-20T04:27:58.617Z,11.87
2023-04-20T04:30:27.372Z,11.20
2023-04-20T04:32:54.110Z,9.83
2023-04-20T04:35:21.593Z,9.83
2023-04-20T04:37:48.213Z,9.10
2023-04-20T04:40:15.017Z,9.43
2023-04-20T04:42:41.523Z,9.70
2023-04-20T04:45:10.120Z,9.83
2023-04-20T04:47:37.027Z,9.27
2023-04-20T04:50:05.744Z,10.00
2023-04-20T04:52:33.416Z,9.57
2023-04-20T04:54:59.998Z,9.87
2023-04-20T04:57:27.074Z,10.13
2023-04-20T04:59:53.952Z,9.37
2023-04-20T05:02:20.882Z,10.53
2023-04-20T05:04:47.470Z,12.93
2023-04-20T05:07:15.056Z,12.23
2023-04-20T05:09:41.648Z,13.07
2023-04-20T05:12:08.213Z,12.77
2023-04-20T05:14:35.185Z,10.93
2023-04-20T05:17:01.948Z,15.40
2023-04-20T05:19:28.542Z,10.30
2023-04-20T05:21:55.060Z,11.87
2023-04-20T05:24:21.616Z,10.17
2023-04-20T05:26:48.076Z,12.90
2023-04-20T05:29:15.901Z,10.10
2023-04-20T05:31:42.803Z,10.17
2023-04-20T05:34:09.376Z,10.20
2023-04-20T05:36:36.027Z,12.77
2023-04-20T05:39:03.163Z,15.60
2023-04-20T05:41:29.662Z,10.20
2023-04-20T05:43:57.040Z,11.00
2023-04-20T05:46:23.805Z,19.03
2023-04-20T05:48:50.461Z,12.63
2023-04-20T05:51:17.017Z,14.80
2023-04-20T05:53:43.533Z,11.07
2023-04-20T05:56:10.583Z,12.60
2023-04-20T05:58:37.562Z,10.50
2023-04-20T06:01:04.882Z,13.60
2023-04-20T06:03:31.639Z,12.20
2023-04-20T06:05:58.610Z,14.90
2023-04-20T06:08:25.255Z,11.33
2023-04-20T06:10:58.581Z,10.17
2023-04-20T06:13:25.232Z,10.83
2023-04-20T06:15:52.816Z,15.17
2023-04-20T06:18:19.885Z,10.43
2023-04-20T06:20:46.790Z,10.37
2023-04-20T06:23:13.529Z,14.80
2023-04-20T06:25:40.211Z,13.43
2023-04-20T06:28:07.403Z,10.07
2023-04-20T06:30:34.689Z,9.80
2023-04-20T06:33:02.080Z,13.10
2023-04-20T06:35:28.881Z,10.60
2023-04-20T06:37:58.260Z,11.17
2023-04-20T06:40:28.896Z,10.33
2023-04-20T06:42:55.642Z,11.80
2023-04-20T06:45:22.498Z,10.60
2023-04-20T06:47:49.285Z,13.53
2023-04-20T06:50:15.993Z,11.68
2023-04-20T06:52:45.387Z,13.10
2023-04-20T06:55:11.988Z,10.97
2023-04-20T06:57:39.363Z,11.47
2023-04-20T07:00:10.862Z,10.57
2023-04-20T07:02:49.184Z,9.60
2023-04-20T07:05:17.130Z,11.33
2023-04-20T07:07:44.349Z,9.53
2023-04-20T07:10:13.648Z,10.23
2023-04-20T07:12:43.221Z,9.67
2023-04-20T07:15:11.135Z,9.23
2023-04-20T07:17:37.858Z,12.87
2023-04-20T07:20:08.521Z,12.03
2023-04-20T07:22:36.281Z,10.97
2023-04-20T07:25:04.814Z,11.80
2023-04-20T07:27:35.049Z,10.20
2023-04-20T07:30:01.845Z,9.20
2023-04-20T07:32:28.445Z,10.17
2023-04-20T07:34:55.129Z,9.63
2023-04-20T07:37:21.799Z,10.20
2023-04-20T07:39:48.318Z,14.17
2023-04-20T07:42:14.816Z,10.03
2023-04-20T07:44:41.312Z,9.70
2023-04-20T07:47:08.063Z,12.43
2023-04-20T07:49:37.578Z,11.37
2023-04-20T07:52:15.558Z,14.10
2023-04-20T07:54:44.679Z,10.47
2023-04-20T07:57:11.301Z,16.13
2023-04-20T07:59:37.835Z,12.27
2023-04-20T08:02:04.489Z,13.23
2023-04-20T08:04:31.531Z,11.13
2023-04-20T08:06:58.289Z,11.33
2023-04-20T08:09:26.054Z,14.33
2023-04-20T08:11:52.632Z,11.83
2023-04-20T08:14:19.651Z,11.10
2023-04-20T08:16:46.470Z,13.87
2023-04-20T08:21:44.630Z,13.13
2023-04-20T08:24:12.099Z,12.00
2023-04-20T08:26:39.404Z,11.77
2023-04-20T08:29:06.211Z,12.30
2023-04-20T08:31:32.839Z,11.47
2023-04-20T08:33:59.379Z,15.00
2023-04-20T08:36:26.767Z,11.67
2023-04-20T08:38:57.365Z,11.03
2023-04-20T08:41:25.625Z,13.83
2023-04-20T08:43:52.224Z,10.73
2023-04-20T08:46:19.313Z,12.23
2023-04-20T08:48:48.456Z,10.40
2023-04-20T08:51:17.023Z,11.97
2023-04-20T08:53:43.598Z,10.03
2023-04-20T08:56:10.902Z,11.13
2023-04-20T08:58:42.025Z,11.30
2023-04-20T09:01:10.526Z,12.63
2023-04-20T09:03:42.612Z,10.67
2023-04-20T09:06:17.120Z,10.30
2023-04-20T09:08:44.876Z,9.50
2023-04-20T09:11:29.911Z,15.53
2023-04-20T09:13:59.734Z,9.40
2023-04-20T09:16:26.436Z,10.27
2023-04-20T09:18:54.723Z,10.40
2023-04-20T09:21:22.105Z,10.57
2023-04-20T09:24:08.164Z,11.20
2023-04-20T09:26:36.176Z,9.60
2023-04-20T09:29:04.237Z,10.03
2023-04-20T09:31:30.803Z,12.97
2023-04-20T09:33:59.211Z,9.37
2023-04-20T09:36:37.178Z,9.97
2023-04-20T09:39:08.659Z,11.43
2023-04-20T09:41:36.448Z,8.80
2023-04-20T09:44:03.813Z,8.63
2023-04-20T09:46:32.278Z,10.57
2023-04-20T09:49:02.591Z,9.03
2023-04-20T09:51:31.570Z,8.30
2023-04-20T09:53:59.749Z,8.00
2023-04-20T09:56:27.624Z,9.00
2023-04-20T09:58:55.671Z,10.97
2023-04-20T10:01:23.578Z,7.97
2023-04-20T10:03:56.574Z,8.50
2023-04-20T10:06:26.218Z,7.47
2023-04-20T10:08:53.473Z,10.33
2023-04-20T10:11:40.524Z,8.50
2023-04-20T10:14:17.085Z,9.23
2023-04-20T10:16:45.103Z,10.43
2023-04-20T10:19:11.738Z,10.50
2023-04-20T10:21:49.349Z,9.70
2023-04-20T10:24:28.313Z,8.00
2023-04-20T10:26:54.991Z,8.50
2023-04-20T10:29:25.736Z,9.80
2023-04-20T10:31:53.319Z,9.00
2023-04-20T10:34:32.487Z,8.90
2023-04-20T10:37:12.823Z,9.90
2023-04-20T10:39:47.079Z,9.43
2023-04-20T10:42:15.483Z,9.70
2023-04-20T10:44:51.794Z,9.40
2023-04-20T10:47:27.580Z,9.33
2023-04-20T10:49:54.234Z,9.30
2023-04-20T10:52:35.947Z,9.33
2023-04-20T10:55:03.575Z,8.07
2023-04-20T10:57:30.372Z,8.37
2023-04-20T10:59:57.041Z,7.30
2023-04-20T11:02:24.041Z,9.03
2023-04-20T11:04:51.302Z,8.93
2023-04-20T11:07:18.741Z,7.30
2023-04-20T11:09:45.414Z,7.20
2023-04-20T11:12:14.399Z,7.97
2023-04-20T11:14:55.441Z,7.30
2023-04-20T11:17:32.766Z,8.27
2023-04-20T11:20:11.960Z,13.53
2023-04-20T11:22:39.758Z,6.87
2023-04-20T11:25:08.008Z,6.77
2023-04-20T11:27:35.316Z,6.17
2023-04-20T11:30:05.461Z,5.30
2023-04-20T11:32:33.398Z,5.20
2023-04-20T11:35:07.668Z,5.23
2023-04-20T11:37:46.267Z,4.97
2023-04-20T11:40:14.874Z,5.00
2023-04-20T11:42:41.409Z,5.67
2023-04-20T11:45:08.410Z,6.10
2023-04-20T11:47:35.005Z,6.33
2023-04-20T11:50:01.542Z,5.83
2023-04-20T11:52:28.045Z,5.83
2023-04-20T11:54:54.587Z,6.00
2023-04-20T11:57:23.606Z,5.70
2023-04-20T11:59:50.164Z,5.73
2023-04-20T12:02:16.831Z,5.30
2023-04-20T12:04:43.630Z,4.80
2023-04-20T12:07:10.671Z,4.60
2023-04-20T12:09:38.148Z,4.00
2023-04-20T12:12:05.872Z,4.10
2023-04-20T12:14:33.728Z,3.63
2023-04-20T12:17:04.561Z,3.87
2023-04-20T12:19:32.007Z,3.47
2023-04-20T12:21:58.617Z,3.50
2023-04-20T12:24:25.461Z,3.30
2023-04-20T12:26:52.026Z,3.70
2023-04-20T12:29:18.772Z,3.87
2023-04-20T12:31:45.500Z,4.23
2023-04-20T12:34:12.364Z,3.70
2023-04-20T12:36:38.996Z,3.37
2023-04-20T12:39:05.624Z,3.80
2023-04-20T12:41:33.010Z,3.80
2023-04-20T12:43:59.614Z,3.70
2023-04-20T12:46:26.212Z,3.73
2023-04-20T12:48:52.727Z,4.33
2023-04-20T12:51:19.304Z,4.00
2023-04-20T12:53:45.892Z,4.10
2023-04-20T12:56:12.419Z,4.10
2023-04-20T12:58:39.069Z,4.27
2023-04-20T13:01:05.771Z,5.90
2023-04-20T13:03:32.731Z,4.50
2023-04-20T13:06:00.297Z,4.60
2023-04-20T13:08:26.903Z,4.67
2023-04-20T13:10:53.675Z,4.60
2023-04-20T13:13:20.307Z,7.67
2023-04-20T13:15:47.275Z,4.50
2023-04-20T13:18:15.306Z,5.03
2023-04-20T13:20:41.939Z,4.77
2023-04-20T13:23:08.447Z,4.57
2023-04-20T13:25:35.090Z,4.80
2023-04-20T13:28:05.016Z,4.70
2023-04-20T13:30:31.842Z,4.67
2023-04-20T13:32:58.383Z,4.67
2023-04-20T13:35:25.362Z,6.13
2023-04-20T13:37:51.926Z,4.70
2023-04-20T13:40:18.468Z,4.20
2023-04-20T13:42:45.022Z,8.10
2023-04-20T13:45:12.082Z,4.70
2023-04-20T13:47:39.994Z,4.60
2023-04-20T13:50:07.625Z,4.50
2023-04-20T13:52:34.366Z,4.83
2023-04-20T13:55:00.877Z,4.87
2023-04-20T13:57:27.450Z,8.23
2023-04-20T13:59:54.025Z,5.23
2023-04-20T14:02:20.867Z,8.33
2023-04-20T14:04:47.631Z,5.17
2023-04-20T14:07:14.235Z,5.90
2023-04-20T14:09:40.752Z,5.00
2023-04-20T14:12:07.412Z,6.20
2023-04-20T14:14:33.973Z,5.23
2023-04-20T14:17:01.729Z,5.50
2023-04-20T14:19:28.327Z,5.20
2023-04-20T14:21:54.901Z,5.47
2023-04-20T14:24:21.400Z,5.60
2023-04-20T14:26:47.929Z,5.47
2023-04-20T14:29:14.462Z,8.47
2023-04-20T14:31:41.077Z,8.17
2023-04-20T14:34:09.243Z,6.00
2023-04-20T14:36:35.766Z,6.20
2023-04-20T14:39:02.401Z,5.80
2023-04-20T14:41:29.638Z,6.40
2023-04-20T14:43:57.232Z,6.60
2023-04-20T14:46:23.896Z,6.30
2023-04-20T14:48:50.500Z,6.10
2023-04-20T14:51:18.831Z,5.57
2023-04-20T14:53:45.424Z,6.07
2023-04-20T14:56:12.004Z,5.35
2023-04-20T14:58:40.105Z,5.80
2023-04-20T15:01:06.648Z,5.97
2023-04-20T15:03:33.351Z,6.20
2023-04-20T15:06:01.794Z,6.70
2023-04-20T15:08:28.561Z,7.83
2023-04-20T15:10:56.622Z,7.43
2023-04-20T15:13:24.557Z,7.87
2023-04-20T15:15:54.097Z,5.70
2023-04-20T15:18:21.442Z,5.57
2023-04-20T15:20:47.999Z,5.88
2023-04-20T15:23:14.959Z,6.30
2023-04-20T15:25:41.572Z,8.38
2023-04-20T15:28:08.114Z,5.60
2023-04-20T15:30:34.837Z,5.32
2023-04-20T15:33:04.449Z,6.47
2023-04-20T15:35:32.826Z,5.43
2023-04-20T15:37:59.365Z,5.75
2023-04-20T15:40:27.207Z,8.93
2023-04-20T15:42:55.503Z,4.82
2023-04-20T15:45:22.739Z,5.53
2023-04-20T15:47:49.514Z,4.95
2023-04-20T15:50:16.806Z,5.32
2023-04-20T15:52:43.673Z,4.32
2023-04-20T15:55:11.467Z,5.00
2023-04-20T15:57:37.972Z,7.88
2023-04-20T16:00:05.017Z,5.40
2023-04-20T16:02:31.645Z,5.28
2023-04-20T16:04:58.424Z,8.85
2023-04-20T16:07:25.315Z,5.57
2023-04-20T16:09:52.183Z,6.43
2023-04-20T16:12:18.729Z,5.07
2023-04-20T16:14:45.648Z,5.20
2023-04-20T16:17:12.158Z,6.77
2023-04-20T16:19:38.704Z,8.50
2023-04-20T16:22:05.236Z,6.77
2023-04-20T16:24:31.785Z,5.83
2023-04-20T16:27:00.996Z,6.87
2023-04-20T16:29:28.288Z,7.37
2023-04-20T16:31:54.886Z,12.77
2023-04-20T16:34:21.515Z,7.40
2023-04-20T16:36:50.043Z,11.87
2023-04-20T16:39:18.371Z,13.07
2023-04-20T16:41:45.044Z,8.33
2023-04-20T16:44:13.552Z,8.37
2023-04-20T16:46:41.580Z,9.53
2023-04-20T16:49:08.914Z,8.57
2023-04-20T16:51:35.416Z,8.05
2023-04-20T16:54:02.170Z,13.70
2023-04-20T16:56:28.682Z,7.17
2023-04-20T16:58:55.441Z,16.47
2023-04-20T17:01:22.257Z,7.20
2023-04-20T17:03:49.019Z,8.20
2023-04-20T17:06:15.817Z,6.70
2023-04-20T17:08:42.408Z,8.97
2023-04-20T17:11:08.933Z,11.30
2023-04-20T17:13:35.685Z,8.07
2023-04-20T17:16:02.279Z,6.30
2023-04-20T17:18:28.811Z,5.80
2023-04-20T17:20:57.140Z,7.53
2023-04-20T17:23:23.892Z,7.43
2023-04-20T17:25:51.180Z,10.60
2023-04-20T17:28:17.794Z,6.93
2023-04-20T17:30:44.399Z,7.70
2023-04-20T17:33:13.847Z,8.03
2023-04-20T17:35:40.464Z,7.60
2023-04-20T17:38:07.041Z,7.70
2023-04-20T17:40:33.994Z,8.20
2023-04-20T17:43:01.339Z,9.13
2023-04-20T17:45:27.881Z,7.80
2023-04-20T17:47:54.643Z,8.03
2023-04-20T17:50:22.501Z,8.87
2023-04-20T17:52:49.055Z,8.67
2023-04-20T17:55:16.897Z,8.43
2023-04-20T17:57:43.589Z,9.17
2023-04-20T18:00:11.598Z,10.73
2023-04-20T18:02:38.743Z,10.53
2023-04-20T18:05:06.127Z,10.63
2023-04-20T18:07:32.687Z,9.07
2023-04-20T18:09:59.247Z,8.30
2023-04-20T18:12:25.929Z,8.93
2023-04-20T18:14:52.476Z,8.70
2023-04-20T18:17:19.239Z,8.90
2023-04-20T18:19:45.990Z,9.73
2023-04-20T18:22:12.682Z,8.30
2023-04-20T18:24:39.206Z,8.40
2023-04-20T18:27:05.760Z,8.53
2023-04-20T18:29:32.292Z,10.07
2023-04-20T18:32:02.014Z,8.60
2023-04-20T18:34:31.744Z,9.47
2023-04-20T18:36:58.896Z,8.90
2023-04-20T18:39:25.749Z,10.30
2023-04-20T18:41:52.310Z,8.67
2023-04-20T18:44:19.462Z,18.30
2023-04-20T18:46:46.400Z,13.47
2023-04-20T18:49:12.985Z,9.27
2023-04-20T18:51:39.608Z,9.40
2023-04-20T18:54:06.685Z,11.80
2023-04-20T18:56:33.629Z,31.53
2023-04-20T18:59:01.305Z,11.57
2023-04-20T19:01:28.012Z,9.00
2023-04-20T19:03:54.945Z,10.10
2023-04-20T19:06:21.617Z,9.90
2023-04-20T19:08:49.366Z,9.13
2023-04-20T19:11:16.277Z,10.53
2023-04-20T19:13:45.039Z,9.73
2023-04-20T19:16:12.404Z,9.97
2023-04-20T19:18:39.615Z,9.90
2023-04-20T19:21:06.563Z,10.37
2023-04-20T19:23:35.478Z,10.33
2023-04-20T19:26:02.668Z,10.60
2023-04-20T19:28:29.821Z,9.03
2023-04-20T19:30:56.872Z,10.03
2023-04-20T19:33:23.436Z,10.83
2023-04-20T19:35:53.391Z,9.90
2023-04-20T19:38:21.602Z,12.53
2023-04-20T19:40:48.671Z,11.70
2023-04-20T19:43:16.739Z,11.07
2023-04-20T19:45:43.857Z,9.90
2023-04-20T19:48:10.558Z,10.97
2023-04-20T19:50:37.147Z,10.83
2023-04-20T19:53:03.768Z,10.80
2023-04-20T19:55:30.450Z,11.73
2023-04-20T19:57:57.000Z,10.40
2023-04-20T20:00:23.567Z,11.17
2023-04-20T20:02:50.264Z,11.20
2023-04-20T20:05:16.970Z,11.73
2023-04-20T20:07:43.556Z,11.47
2023-04-20T20:10:10.316Z,12.80
2023-04-20T20:12:37.074Z,11.70
2023-04-20T20:15:04.492Z,11.07
2023-04-20T20:17:31.124Z,17.33
2023-04-20T20:19:57.971Z,11.93
2023-04-20T20:22:24.576Z,12.60
2023-04-20T20:24:54.066Z,11.23
2023-04-20T20:27:21.145Z,11.33
2023-04-20T20:29:47.763Z,11.40
2023-04-20T20:32:14.300Z,11.47
2023-04-20T20:34:41.128Z,11.13
2023-04-20T20:37:10.008Z,11.00
2023-04-20T20:39:36.771Z,11.73
2023-04-20T20:42:04.582Z,11.77
2023-04-20T20:44:34.815Z,13.73
2023-04-20T20:47:01.408Z,11.90
2023-04-20T20:49:27.994Z,12.10
2023-04-20T20:51:54.648Z,12.53
2023-04-20T20:54:21.324Z,14.53
2023-04-20T20:56:48.060Z,13.00
2023-04-20T20:59:14.674Z,13.13
2023-04-20T21:01:41.304Z,13.23
2023-04-20T21:04:08.399Z,13.27
2023-04-20T21:06:35.189Z,14.00
2023-04-20T21:09:01.779Z,13.90
2023-04-20T21:11:28.288Z,14.10
2023-04-20T21:13:56.314Z,14.70
2023-04-20T21:16:23.381Z,14.47
2023-04-20T21:18:50.068Z,15.70
2023-04-20T21:21:16.755Z,15.60
2023-04-20T21:23:43.279Z,15.37
2023-04-20T21:26:09.837Z,16.27
2023-04-20T21:28:36.342Z,17.20
2023-04-20T21:31:03.119Z,21.43
2023-04-20T21:33:29.643Z,17.40
2023-04-20T21:35:58.856Z,18.67
2023-04-20T21:38:25.594Z,17.27
2023-04-20T21:40:52.199Z,20.83
2023-04-20T21:43:18.713Z,19.77
2023-04-20T21:45:45.488Z,19.70
2023-04-20T21:48:12.248Z,19.80
2023-04-20T21:50:39.008Z,20.83
2023-04-20T21:53:05.584Z,22.73
2023-04-20T21:55:32.186Z,21.10
2023-04-20T21:57:58.687Z,22.07
2023-04-20T22:00:25.368Z,22.47
2023-04-20T22:02:52.070Z,23.70
2023-04-20T22:05:18.871Z,26.47
2023-04-20T22:07:45.707Z,23.83
2023-04-20T22:10:12.295Z,27.17
2023-04-20T22:12:40.645Z,28.07
2023-04-20T22:15:13.287Z,27.83
2023-04-20T22:17:40.708Z,25.73
2023-04-20T22:20:10.498Z,27.50
2023-04-20T22:22:37.831Z,28.67
2023-04-20T22:25:05.870Z,28.97
2023-04-20T22:27:33.860Z,25.53
2023-04-20T22:30:00.643Z,30.03
2023-04-20T22:32:27.420Z,29.33
2023-04-20T22:34:54.019Z,25.30
2023-04-20T22:37:20.737Z,31.13
2023-04-20T22:39:47.262Z,28.67
2023-04-20T22:42:13.786Z,32.10
2023-04-20T22:44:40.513Z,29.53
2023-04-20T22:47:07.272Z,33.13
2023-04-20T22:49:34.481Z,36.87
2023-04-20T22:52:01.301Z,32.97
2023-04-20T22:54:28.016Z,33.93
2023-04-20T22:56:54.650Z,33.50
2023-04-20T22:59:21.381Z,38.43
2023-04-20T23:01:48.024Z,31.60
2023-04-20T23:04:14.596Z,29.83
2023-04-20T23:06:43.635Z,32.43
2023-04-20T23:09:13.281Z,30.30
2023-04-20T23:11:40.388Z,28.83
2023-04-20T23:14:08.392Z,32.67
2023-04-20T23:16:35.536Z,31.07
2023-04-20T23:19:02.094Z,32.60
2023-04-20T23:21:28.805Z,34.90
2023-04-20T23:23:58.625Z,33.70
2023-04-20T23:26:25.377Z,35.30
2023-04-20T23:28:52.925Z,34.60
2023-04-20T23:31:20.479Z,37.47
2023-04-20T23:33:47.775Z,34.93
2023-04-20T23:36:14.648Z,34.73
2023-04-20T23:38:41.172Z,39.30
2023-04-20T23:41:09.486Z,36.87
2023-04-20T23:43:37.051Z,37.93
2023-04-20T23:46:04.101Z,37.73
2023-04-20T23:48:30.702Z,39.60
2023-04-20T23:50:57.353Z,40.60
2023-04-20T23:53:23.940Z,42.63
2023-04-20T23:55:55.434Z,37.97
2023-04-20T23:58:26.441Z,36.73
